OISA  Abadeh  Airport

Abadeh, Iran

Add Bookmark
Status
Operational
Latitude Longitude
31° 10' 0" N 52° 40' 0" E
31.166668 52.666668
Local (DST + 5) UTC (GMT + 4)
Mar 31, 2015 09:20 Mar 31, 2015 16:50
Sunrise-Sunset Local UTC
Begin Civil Twilight 06:23 01:53
Sunrise 06:48 02:18
Sunset 07:18 14:48
End Civil Twilight 07:43 15:13
VFR
VFR
MVFR
MVFR
IFR
VFR
LIFR
VFR
Unknown
Unavailable

Current Weather

METAR Observed VFR
OISA 311555Z 22006KT 9999 SCT040 12/M03 Q1016 Tue, Mar 31, 2015 @ 15:55 UTC
(55 Minutes ago)
Visual Flight Rules
Wind Visibility Clouds Conditions
220° at 6 knots (11 kph) 10 km or more
  • Scattered at 4,000' AGL
  • No significant weather
Temperatures Readings Precipitation
Current Temp 12°C (54°F)
Dewpoint -3°C (27°F)
Humidity 35%
Altimeter 30"Hg
Sea Level Pressure 1016mb
Field Elevation 6574.8'
None Recorded

Additional weather within a 185.2km radius of OISA

Map ICAO Location
OISY 118.7km W (244°)
OIYY 173.2km E (061°)
OISS 180.9km S (182°)
VFR
VFR
MVFR
MVFR
IFR
VFR
LIFR
VFR
Unknown
Unavailable
-
-

CheckWX.com is intended as a tool to help pilots better visualize weather data. It is not intended as a substitute for an official weather briefing obtained from a Flight Service Station. CheckWX.com does not meet the FAA requirements for an official pre-flight weather briefing. Therefore, it's important that pilots still call and obtain an official FSS pre-flight weather briefing.